sensor_id;sensor_type;location;lat;lon;timestamp;temperature;humidity
13898;DHT22;7019;50.766;4.474;2023-05-07T00:02:21;13.50;99.90
13898;DHT22;7019;50.766;4.474;2023-05-07T00:04:48;13.50;99.90
13898;DHT22;7019;50.766;4.474;2023-05-07T00:07:15;13.50;99.90
13898;DHT22;7019;50.766;4.474;2023-05-07T00:09:43;13.60;99.90
13898;DHT22;7019;50.766;4.474;2023-05-07T00:12:10;13.60;99.90
13898;DHT22;7019;50.766;4.474;2023-05-07T00:14:37;13.50;99.90
13898;DHT22;7019;50.766;4.474;2023-05-07T00:17:04;13.50;99.90
13898;DHT22;7019;50.766;4.474;2023-05-07T00:19:32;13.50;99.90
13898;DHT22;7019;50.766;4.474;2023-05-07T00:21:59;13.50;99.90
13898;DHT22;7019;50.766;4.474;2023-05-07T00:24:27;13.50;99.90
13898;DHT22;7019;50.766;4.474;2023-05-07T00:26:54;13.50;99.90
13898;DHT22;7019;50.766;4.474;2023-05-07T00:29:21;13.50;99.90
13898;DHT22;7019;50.766;4.474;2023-05-07T00:31:49;13.40;99.90
13898;DHT22;7019;50.766;4.474;2023-05-07T00:34:16;13.50;99.90
13898;DHT22;7019;50.766;4.474;2023-05-07T00:36:45;13.50;99.90
13898;DHT22;7019;50.766;4.474;2023-05-07T00:39:12;13.50;99.90
13898;DHT22;7019;50.766;4.474;2023-05-07T00:41:39;13.50;99.90
13898;DHT22;7019;50.766;4.474;2023-05-07T00:44:06;13.50;99.90
13898;DHT22;7019;50.766;4.474;2023-05-07T00:46:34;13.50;99.90
13898;DHT22;7019;50.766;4.474;2023-05-07T00:49:01;13.50;99.90
13898;DHT22;7019;50.766;4.474;2023-05-07T00:51:29;13.40;99.90
13898;DHT22;7019;50.766;4.474;2023-05-07T00:53:58;13.40;99.90
13898;DHT22;7019;50.766;4.474;2023-05-07T00:56:25;13.30;99.90
13898;DHT22;7019;50.766;4.474;2023-05-07T00:58:53;13.30;99.90
13898;DHT22;7019;50.766;4.474;2023-05-07T01:01:20;13.40;99.90
13898;DHT22;7019;50.766;4.474;2023-05-07T01:03:47;13.40;99.90
13898;DHT22;7019;50.766;4.474;2023-05-07T01:06:15;13.40;99.90
13898;DHT22;7019;50.766;4.474;2023-05-07T01:08:43;13.30;99.90
13898;DHT22;7019;50.766;4.474;2023-05-07T01:11:12;13.30;99.90
13898;DHT22;7019;50.766;4.474;2023-05-07T01:13:40;13.30;99.90
13898;DHT22;7019;50.766;4.474;2023-05-07T01:16:09;13.30;99.90
13898;DHT22;7019;50.766;4.474;2023-05-07T01:18:36;13.30;99.90
13898;DHT22;7019;50.766;4.474;2023-05-07T01:21:04;13.40;99.90
13898;DHT22;7019;50.766;4.474;2023-05-07T01:23:34;13.40;99.90
13898;DHT22;7019;50.766;4.474;2023-05-07T01:26:02;13.40;99.90
13898;DHT22;7019;50.766;4.474;2023-05-07T01:28:29;13.30;99.90
13898;DHT22;7019;50.766;4.474;2023-05-07T01:31:00;13.40;99.90
13898;DHT22;7019;50.766;4.474;2023-05-07T01:33:30;13.40;99.90
13898;DHT22;7019;50.766;4.474;2023-05-07T01:35:59;13.40;99.90
13898;DHT22;7019;50.766;4.474;2023-05-07T01:38:28;13.40;99.90
13898;DHT22;7019;50.766;4.474;2023-05-07T01:40:58;13.40;99.90
13898;DHT22;7019;50.766;4.474;2023-05-07T01:43:25;13.40;99.90
13898;DHT22;7019;50.766;4.474;2023-05-07T01:45:53;13.40;99.90
13898;DHT22;7019;50.766;4.474;2023-05-07T01:48:20;13.40;99.90
13898;DHT22;7019;50.766;4.474;2023-05-07T01:50:48;13.40;99.90
13898;DHT22;7019;50.766;4.474;2023-05-07T01:53:15;13.30;99.90
13898;DHT22;7019;50.766;4.474;2023-05-07T01:55:42;13.30;99.90
13898;DHT22;7019;50.766;4.474;2023-05-07T01:58:11;13.30;99.90
13898;DHT22;7019;50.766;4.474;2023-05-07T02:00:38;13.30;99.90
13898;DHT22;7019;50.766;4.474;2023-05-07T02:03:05;13.30;99.90
13898;DHT22;7019;50.766;4.474;2023-05-07T02:05:34;13.30;99.90
13898;DHT22;7019;50.766;4.474;2023-05-07T02:08:01;13.20;99.90
13898;DHT22;7019;50.766;4.474;2023-05-07T02:10:28;13.20;99.90
13898;DHT22;7019;50.766;4.474;2023-05-07T02:12:55;13.20;99.90
13898;DHT22;7019;50.766;4.474;2023-05-07T02:15:23;13.30;99.90
13898;DHT22;7019;50.766;4.474;2023-05-07T02:18:00;13.30;99.90
13898;DHT22;7019;50.766;4.474;2023-05-07T02:20:28;13.20;99.90
13898;DHT22;7019;50.766;4.474;2023-05-07T02:22:55;13.20;99.90
13898;DHT22;7019;50.766;4.474;2023-05-07T02:25:22;13.20;99.90
13898;DHT22;7019;50.766;4.474;2023-05-07T02:27:49;13.20;99.90
13898;DHT22;7019;50.766;4.474;2023-05-07T02:30:16;13.10;99.90
13898;DHT22;7019;50.766;4.474;2023-05-07T02:32:45;13.10;99.90
13898;DHT22;7019;50.766;4.474;2023-05-07T02:35:12;13.10;99.90
13898;DHT22;7019;50.766;4.474;2023-05-07T02:37:39;13.00;99.90
13898;DHT22;7019;50.766;4.474;2023-05-07T02:40:07;12.90;99.90
13898;DHT22;7019;50.766;4.474;2023-05-07T02:42:34;12.80;99.90
13898;DHT22;7019;50.766;4.474;2023-05-07T02:45:01;12.70;99.90
13898;DHT22;7019;50.766;4.474;2023-05-07T02:47:28;12.60;99.90
13898;DHT22;7019;50.766;4.474;2023-05-07T02:49:57;12.50;99.90
13898;DHT22;7019;50.766;4.474;2023-05-07T02:52:24;12.50;99.90
13898;DHT22;7019;50.766;4.474;2023-05-07T02:54:51;12.40;99.90
13898;DHT22;7019;50.766;4.474;2023-05-07T02:57:18;12.50;99.90
13898;DHT22;7019;50.766;4.474;2023-05-07T02:59:45;12.50;99.90
13898;DHT22;7019;50.766;4.474;2023-05-07T03:02:12;12.60;99.90
13898;DHT22;7019;50.766;4.474;2023-05-07T03:04:39;12.60;99.90
13898;DHT22;7019;50.766;4.474;2023-05-07T03:07:08;12.70;99.90
13898;DHT22;7019;50.766;4.474;2023-05-07T03:09:35;12.80;99.90
13898;DHT22;7019;50.766;4.474;2023-05-07T03:12:02;12.80;99.90
13898;DHT22;7019;50.766;4.474;2023-05-07T03:14:29;12.80;99.90
13898;DHT22;7019;50.766;4.474;2023-05-07T03:16:56;12.80;99.90
13898;DHT22;7019;50.766;4.474;2023-05-07T03:19:23;12.80;99.90
13898;DHT22;7019;50.766;4.474;2023-05-07T03:21:50;12.80;99.90
13898;DHT22;7019;50.766;4.474;2023-05-07T03:24:19;12.80;99.90
13898;DHT22;7019;50.766;4.474;2023-05-07T03:26:46;12.80;99.90
13898;DHT22;7019;50.766;4.474;2023-05-07T03:29:13;12.80;99.90
13898;DHT22;7019;50.766;4.474;2023-05-07T03:31:40;12.80;99.90
13898;DHT22;7019;50.766;4.474;2023-05-07T03:34:07;12.90;99.90
13898;DHT22;7019;50.766;4.474;2023-05-07T03:36:34;12.90;99.90
13898;DHT22;7019;50.766;4.474;2023-05-07T03:39:01;12.90;99.90
13898;DHT22;7019;50.766;4.474;2023-05-07T03:41:29;13.00;99.90
13898;DHT22;7019;50.766;4.474;2023-05-07T03:43:56;13.00;99.90
13898;DHT22;7019;50.766;4.474;2023-05-07T03:46:23;13.00;99.90
13898;DHT22;7019;50.766;4.474;2023-05-07T03:48:51;13.00;99.90
13898;DHT22;7019;50.766;4.474;2023-05-07T03:51:19;13.00;99.90
13898;DHT22;7019;50.766;4.474;2023-05-07T03:53:46;13.10;99.90
13898;DHT22;7019;50.766;4.474;2023-05-07T03:56:13;13.00;99.90
13898;DHT22;7019;50.766;4.474;2023-05-07T03:58:41;13.10;99.90
13898;DHT22;7019;50.766;4.474;2023-05-07T04:01:08;13.10;99.90
13898;DHT22;7019;50.766;4.474;2023-05-07T04:03:35;13.10;99.90
13898;DHT22;7019;50.766;4.474;2023-05-07T04:06:02;13.10;99.90
13898;DHT22;7019;50.766;4.474;2023-05-07T04:08:30;13.10;99.90
13898;DHT22;7019;50.766;4.474;2023-05-07T04:10:57;13.10;99.90
13898;DHT22;7019;50.766;4.474;2023-05-07T04:13:25;13.10;99.90
13898;DHT22;7019;50.766;4.474;2023-05-07T04:15:55;13.10;99.90
13898;DHT22;7019;50.766;4.474;2023-05-07T04:18:22;13.10;99.90
13898;DHT22;7019;50.766;4.474;2023-05-07T04:20:49;13.10;99.90
13898;DHT22;7019;50.766;4.474;2023-05-07T04:23:16;13.10;99.90
13898;DHT22;7019;50.766;4.474;2023-05-07T04:25:43;13.10;99.90
13898;DHT22;7019;50.766;4.474;2023-05-07T04:28:10;13.10;99.90
13898;DHT22;7019;50.766;4.474;2023-05-07T04:30:38;13.10;99.90
13898;DHT22;7019;50.766;4.474;2023-05-07T04:33:06;13.20;99.90
13898;DHT22;7019;50.766;4.474;2023-05-07T04:35:34;13.20;99.90
13898;DHT22;7019;50.766;4.474;2023-05-07T04:38:02;13.20;99.90
13898;DHT22;7019;50.766;4.474;2023-05-07T04:40:29;13.20;99.90
13898;DHT22;7019;50.766;4.474;2023-05-07T04:42:56;13.20;99.90
13898;DHT22;7019;50.766;4.474;2023-05-07T04:45:23;13.10;99.90
13898;DHT22;7019;50.766;4.474;2023-05-07T04:47:50;13.20;99.90
13898;DHT22;7019;50.766;4.474;2023-05-07T04:50:19;13.20;99.90
13898;DHT22;7019;50.766;4.474;2023-05-07T04:52:49;13.30;99.90
13898;DHT22;7019;50.766;4.474;2023-05-07T04:55:16;13.30;99.90
13898;DHT22;7019;50.766;4.474;2023-05-07T04:57:43;13.30;99.90
13898;DHT22;7019;50.766;4.474;2023-05-07T05:00:11;13.40;99.90
13898;DHT22;7019;50.766;4.474;2023-05-07T05:02:40;13.40;99.90
13898;DHT22;7019;50.766;4.474;2023-05-07T05:05:07;13.50;99.90
13898;DHT22;7019;50.766;4.474;2023-05-07T05:07:36;13.50;99.90
13898;DHT22;7019;50.766;4.474;2023-05-07T05:10:05;13.60;99.90
13898;DHT22;7019;50.766;4.474;2023-05-07T05:12:33;13.60;99.90
13898;DHT22;7019;50.766;4.474;2023-05-07T05:14:59;13.60;99.90
13898;DHT22;7019;50.766;4.474;2023-05-07T05:17:26;13.70;99.90
13898;DHT22;7019;50.766;4.474;2023-05-07T05:19:54;13.70;99.90
13898;DHT22;7019;50.766;4.474;2023-05-07T05:22:21;13.80;99.90
13898;DHT22;7019;50.766;4.474;2023-05-07T05:24:49;13.80;99.90
13898;DHT22;7019;50.766;4.474;2023-05-07T05:27:16;13.80;99.90
13898;DHT22;7019;50.766;4.474;2023-05-07T05:29:43;13.90;99.90
13898;DHT22;7019;50.766;4.474;2023-05-07T05:32:10;14.00;99.90
13898;DHT22;7019;50.766;4.474;2023-05-07T05:34:37;14.00;99.90
13898;DHT22;7019;50.766;4.474;2023-05-07T05:37:04;14.10;99.90
13898;DHT22;7019;50.766;4.474;2023-05-07T05:39:31;14.10;99.90
13898;DHT22;7019;50.766;4.474;2023-05-07T05:42:00;14.00;99.90
13898;DHT22;7019;50.766;4.474;2023-05-07T05:44:27;14.00;99.90
13898;DHT22;7019;50.766;4.474;2023-05-07T05:46:54;14.00;99.90
13898;DHT22;7019;50.766;4.474;2023-05-07T05:49:23;14.00;99.90
13898;DHT22;7019;50.766;4.474;2023-05-07T05:51:50;14.00;99.90
13898;DHT22;7019;50.766;4.474;2023-05-07T05:54:17;14.00;99.90
13898;DHT22;7019;50.766;4.474;2023-05-07T05:56:44;14.00;99.90
13898;DHT22;7019;50.766;4.474;2023-05-07T05:59:12;14.00;99.90
13898;DHT22;7019;50.766;4.474;2023-05-07T06:01:40;14.10;99.90
13898;DHT22;7019;50.766;4.474;2023-05-07T06:04:07;14.20;99.90
13898;DHT22;7019;50.766;4.474;2023-05-07T06:06:34;14.20;99.90
13898;DHT22;7019;50.766;4.474;2023-05-07T06:09:01;14.20;99.90
13898;DHT22;7019;50.766;4.474;2023-05-07T06:11:28;14.20;99.90
13898;DHT22;7019;50.766;4.474;2023-05-07T06:13:55;14.20;99.90
13898;DHT22;7019;50.766;4.474;2023-05-07T06:16:24;14.30;99.90
13898;DHT22;7019;50.766;4.474;2023-05-07T06:18:51;14.30;99.90
13898;DHT22;7019;50.766;4.474;2023-05-07T06:21:18;14.40;99.90
13898;DHT22;7019;50.766;4.474;2023-05-07T06:23:45;14.50;99.90
13898;DHT22;7019;50.766;4.474;2023-05-07T06:26:12;14.50;99.90
13898;DHT22;7019;50.766;4.474;2023-05-07T06:28:39;14.60;99.90
13898;DHT22;7019;50.766;4.474;2023-05-07T06:31:14;14.70;99.90
13898;DHT22;7019;50.766;4.474;2023-05-07T06:33:43;14.70;99.90
13898;DHT22;7019;50.766;4.474;2023-05-07T06:36:11;14.80;99.90
13898;DHT22;7019;50.766;4.474;2023-05-07T06:38:38;14.90;99.90
13898;DHT22;7019;50.766;4.474;2023-05-07T06:41:05;14.90;99.90
13898;DHT22;7019;50.766;4.474;2023-05-07T06:43:33;14.90;99.90
13898;DHT22;7019;50.766;4.474;2023-05-07T06:46:00;14.90;99.90
13898;DHT22;7019;50.766;4.474;2023-05-07T06:48:27;15.00;99.90
13898;DHT22;7019;50.766;4.474;2023-05-07T06:50:55;15.00;99.90
13898;DHT22;7019;50.766;4.474;2023-05-07T06:53:23;15.00;99.90
13898;DHT22;7019;50.766;4.474;2023-05-07T06:55:51;15.00;99.90
13898;DHT22;7019;50.766;4.474;2023-05-07T06:58:18;15.00;99.90
13898;DHT22;7019;50.766;4.474;2023-05-07T07:00:45;15.00;99.90
13898;DHT22;7019;50.766;4.474;2023-05-07T07:03:12;15.00;99.90
13898;DHT22;7019;50.766;4.474;2023-05-07T07:05:40;15.00;99.90
13898;DHT22;7019;50.766;4.474;2023-05-07T07:08:09;15.10;99.90
13898;DHT22;7019;50.766;4.474;2023-05-07T07:10:37;15.10;99.90
13898;DHT22;7019;50.766;4.474;2023-05-07T07:13:04;15.20;99.90
13898;DHT22;7019;50.766;4.474;2023-05-07T07:15:31;15.20;99.90
13898;DHT22;7019;50.766;4.474;2023-05-07T07:17:58;15.30;99.90
13898;DHT22;7019;50.766;4.474;2023-05-07T07:20:25;15.30;99.90
13898;DHT22;7019;50.766;4.474;2023-05-07T07:22:52;15.30;99.90
13898;DHT22;7019;50.766;4.474;2023-05-07T07:25:20;15.30;99.90
13898;DHT22;7019;50.766;4.474;2023-05-07T07:27:48;15.40;99.90
13898;DHT22;7019;50.766;4.474;2023-05-07T07:30:15;15.40;99.90
13898;DHT22;7019;50.766;4.474;2023-05-07T07:32:42;15.40;99.90
13898;DHT22;7019;50.766;4.474;2023-05-07T07:35:09;15.50;99.90
13898;DHT22;7019;50.766;4.474;2023-05-07T07:37:36;15.40;99.90
13898;DHT22;7019;50.766;4.474;2023-05-07T07:40:04;15.40;99.90
13898;DHT22;7019;50.766;4.474;2023-05-07T07:42:33;15.40;99.90
13898;DHT22;7019;50.766;4.474;2023-05-07T07:45:00;15.40;99.90
13898;DHT22;7019;50.766;4.474;2023-05-07T07:47:27;15.40;99.90
13898;DHT22;7019;50.766;4.474;2023-05-07T07:49:54;15.40;99.90
13898;DHT22;7019;50.766;4.474;2023-05-07T07:52:21;15.40;99.90
13898;DHT22;7019;50.766;4.474;2023-05-07T07:54:48;15.40;99.90
13898;DHT22;7019;50.766;4.474;2023-05-07T07:57:15;15.50;99.90
13898;DHT22;7019;50.766;4.474;2023-05-07T07:59:43;15.50;99.90
13898;DHT22;7019;50.766;4.474;2023-05-07T08:02:11;15.50;99.90
13898;DHT22;7019;50.766;4.474;2023-05-07T08:04:38;15.50;99.90
13898;DHT22;7019;50.766;4.474;2023-05-07T08:07:05;15.50;99.90
13898;DHT22;7019;50.766;4.474;2023-05-07T08:09:32;15.60;99.90
13898;DHT22;7019;50.766;4.474;2023-05-07T08:11:59;15.70;99.90
13898;DHT22;7019;50.766;4.474;2023-05-07T08:14:26;15.70;99.90
13898;DHT22;7019;50.766;4.474;2023-05-07T08:16:55;15.80;99.90
13898;DHT22;7019;50.766;4.474;2023-05-07T08:19:22;15.90;99.90
13898;DHT22;7019;50.766;4.474;2023-05-07T08:21:50;16.00;99.90
13898;DHT22;7019;50.766;4.474;2023-05-07T08:24:17;16.00;99.90
13898;DHT22;7019;50.766;4.474;2023-05-07T08:26:44;15.90;99.90
13898;DHT22;7019;50.766;4.474;2023-05-07T08:29:12;16.00;99.90
13898;DHT22;7019;50.766;4.474;2023-05-07T08:31:39;16.00;99.90
13898;DHT22;7019;50.766;4.474;2023-05-07T08:34:07;16.00;99.90
13898;DHT22;7019;50.766;4.474;2023-05-07T08:36:34;16.10;99.90
13898;DHT22;7019;50.766;4.474;2023-05-07T08:39:02;16.10;99.90
13898;DHT22;7019;50.766;4.474;2023-05-07T08:41:29;16.30;99.90
13898;DHT22;7019;50.766;4.474;2023-05-07T08:43:58;16.30;99.90
13898;DHT22;7019;50.766;4.474;2023-05-07T08:46:26;16.30;99.90
13898;DHT22;7019;50.766;4.474;2023-05-07T08:48:57;16.30;99.90
13898;DHT22;7019;50.766;4.474;2023-05-07T08:51:26;16.40;99.90
13898;DHT22;7019;50.766;4.474;2023-05-07T08:53:53;16.40;99.90
13898;DHT22;7019;50.766;4.474;2023-05-07T08:56:21;16.40;99.90
13898;DHT22;7019;50.766;4.474;2023-05-07T08:58:48;16.40;99.90
13898;DHT22;7019;50.766;4.474;2023-05-07T09:01:16;16.50;99.90
13898;DHT22;7019;50.766;4.474;2023-05-07T09:03:44;16.50;99.90
13898;DHT22;7019;50.766;4.474;2023-05-07T09:06:12;16.50;99.90
13898;DHT22;7019;50.766;4.474;2023-05-07T09:08:41;16.50;99.90
13898;DHT22;7019;50.766;4.474;2023-05-07T09:11:11;16.40;99.90
13898;DHT22;7019;50.766;4.474;2023-05-07T09:13:39;16.40;99.90
13898;DHT22;7019;50.766;4.474;2023-05-07T09:16:13;16.40;99.90
13898;DHT22;7019;50.766;4.474;2023-05-07T09:18:41;16.50;99.90
13898;DHT22;7019;50.766;4.474;2023-05-07T09:21:10;16.40;99.90
13898;DHT22;7019;50.766;4.474;2023-05-07T09:23:38;16.40;99.90
13898;DHT22;7019;50.766;4.474;2023-05-07T09:26:07;16.20;99.90
13898;DHT22;7019;50.766;4.474;2023-05-07T09:28:39;16.10;99.90
13898;DHT22;7019;50.766;4.474;2023-05-07T09:31:07;16.10;99.90
13898;DHT22;7019;50.766;4.474;2023-05-07T09:33:34;16.00;99.90
13898;DHT22;7019;50.766;4.474;2023-05-07T09:36:05;16.00;99.90
13898;DHT22;7019;50.766;4.474;2023-05-07T09:38:34;16.10;99.90
13898;DHT22;7019;50.766;4.474;2023-05-07T09:41:06;16.20;99.90
13898;DHT22;7019;50.766;4.474;2023-05-07T09:43:34;16.20;99.90
13898;DHT22;7019;50.766;4.474;2023-05-07T09:46:03;16.30;99.90
13898;DHT22;7019;50.766;4.474;2023-05-07T09:48:37;16.40;99.90
13898;DHT22;7019;50.766;4.474;2023-05-07T09:51:18;16.30;99.90
13898;DHT22;7019;50.766;4.474;2023-05-07T09:53:48;16.30;99.90
13898;DHT22;7019;50.766;4.474;2023-05-07T09:56:18;16.30;99.90
13898;DHT22;7019;50.766;4.474;2023-05-07T09:58:47;16.40;99.90
13898;DHT22;7019;50.766;4.474;2023-05-07T10:01:17;16.40;99.90
13898;DHT22;7019;50.766;4.474;2023-05-07T10:03:45;16.40;99.90
13898;DHT22;7019;50.766;4.474;2023-05-07T10:06:13;16.40;99.90
13898;DHT22;7019;50.766;4.474;2023-05-07T10:08:43;16.30;99.90
13898;DHT22;7019;50.766;4.474;2023-05-07T10:11:11;16.30;99.90
13898;DHT22;7019;50.766;4.474;2023-05-07T10:13:40;16.40;99.90
13898;DHT22;7019;50.766;4.474;2023-05-07T10:16:08;16.50;99.90
13898;DHT22;7019;50.766;4.474;2023-05-07T10:18:35;16.60;99.90
13898;DHT22;7019;50.766;4.474;2023-05-07T10:21:07;16.60;99.90
13898;DHT22;7019;50.766;4.474;2023-05-07T10:23:35;16.70;99.90
13898;DHT22;7019;50.766;4.474;2023-05-07T10:26:04;16.80;99.90
13898;DHT22;7019;50.766;4.474;2023-05-07T10:28:34;16.70;99.90
13898;DHT22;7019;50.766;4.474;2023-05-07T10:31:15;16.70;99.90
13898;DHT22;7019;50.766;4.474;2023-05-07T10:33:46;16.70;99.90
13898;DHT22;7019;50.766;4.474;2023-05-07T10:36:17;16.80;99.90
13898;DHT22;7019;50.766;4.474;2023-05-07T10:38:45;16.80;99.90
13898;DHT22;7019;50.766;4.474;2023-05-07T10:41:13;16.70;99.90
13898;DHT22;7019;50.766;4.474;2023-05-07T10:43:43;16.70;99.90
13898;DHT22;7019;50.766;4.474;2023-05-07T10:46:15;16.70;99.90
13898;DHT22;7019;50.766;4.474;2023-05-07T10:49:10;16.70;99.90
13898;DHT22;7019;50.766;4.474;2023-05-07T10:51:41;16.80;99.90
13898;DHT22;7019;50.766;4.474;2023-05-07T10:54:26;17.10;99.90
13898;DHT22;7019;50.766;4.474;2023-05-07T10:56:53;17.30;99.90
13898;DHT22;7019;50.766;4.474;2023-05-07T10:59:31;17.40;99.90
13898;DHT22;7019;50.766;4.474;2023-05-07T11:02:02;17.60;99.90
13898;DHT22;7019;50.766;4.474;2023-05-07T11:04:30;17.60;99.90
13898;DHT22;7019;50.766;4.474;2023-05-07T11:07:28;17.80;99.90
13898;DHT22;7019;50.766;4.474;2023-05-07T11:10:03;17.90;99.90
13898;DHT22;7019;50.766;4.474;2023-05-07T11:12:53;17.90;99.90
13898;DHT22;7019;50.766;4.474;2023-05-07T11:15:47;17.90;99.90
13898;DHT22;7019;50.766;4.474;2023-05-07T11:18:17;18.10;99.90
13898;DHT22;7019;50.766;4.474;2023-05-07T11:20:56;18.20;99.90
13898;DHT22;7019;50.766;4.474;2023-05-07T11:23:57;18.30;99.90
13898;DHT22;7019;50.766;4.474;2023-05-07T11:26:27;18.30;99.90
13898;DHT22;7019;50.766;4.474;2023-05-07T11:28:54;18.20;99.90
13898;DHT22;7019;50.766;4.474;2023-05-07T11:31:24;18.20;99.90
13898;DHT22;7019;50.766;4.474;2023-05-07T11:33:54;18.00;99.90
13898;DHT22;7019;50.766;4.474;2023-05-07T11:36:23;18.20;99.90
13898;DHT22;7019;50.766;4.474;2023-05-07T11:38:50;18.30;99.90
13898;DHT22;7019;50.766;4.474;2023-05-07T11:41:18;18.50;99.90
13898;DHT22;7019;50.766;4.474;2023-05-07T11:43:58;18.70;99.90
13898;DHT22;7019;50.766;4.474;2023-05-07T11:46:26;18.90;99.90
13898;DHT22;7019;50.766;4.474;2023-05-07T11:48:54;19.00;99.90
13898;DHT22;7019;50.766;4.474;2023-05-07T11:51:23;18.90;99.90
13898;DHT22;7019;50.766;4.474;2023-05-07T11:53:52;19.00;99.90
13898;DHT22;7019;50.766;4.474;2023-05-07T11:56:19;19.10;99.90
13898;DHT22;7019;50.766;4.474;2023-05-07T11:58:47;19.20;99.90
13898;DHT22;7019;50.766;4.474;2023-05-07T12:01:15;19.20;99.90
13898;DHT22;7019;50.766;4.474;2023-05-07T12:03:45;19.10;99.90
13898;DHT22;7019;50.766;4.474;2023-05-07T12:06:15;19.00;99.90
13898;DHT22;7019;50.766;4.474;2023-05-07T12:08:44;18.80;99.90
13898;DHT22;7019;50.766;4.474;2023-05-07T12:11:14;18.80;99.90
13898;DHT22;7019;50.766;4.474;2023-05-07T12:13:43;18.70;99.90
13898;DHT22;7019;50.766;4.474;2023-05-07T12:16:11;18.60;99.90
13898;DHT22;7019;50.766;4.474;2023-05-07T12:18:39;18.70;99.90
13898;DHT22;7019;50.766;4.474;2023-05-07T12:21:07;18.70;99.90
13898;DHT22;7019;50.766;4.474;2023-05-07T12:23:36;18.50;99.90
13898;DHT22;7019;50.766;4.474;2023-05-07T12:26:04;18.30;99.90
13898;DHT22;7019;50.766;4.474;2023-05-07T12:28:35;18.30;99.90
13898;DHT22;7019;50.766;4.474;2023-05-07T12:31:03;18.40;99.90
13898;DHT22;7019;50.766;4.474;2023-05-07T12:33:31;18.30;99.90
13898;DHT22;7019;50.766;4.474;2023-05-07T12:36:03;18.20;99.90
13898;DHT22;7019;50.766;4.474;2023-05-07T12:38:36;18.20;99.90
13898;DHT22;7019;50.766;4.474;2023-05-07T12:41:06;18.20;99.90
13898;DHT22;7019;50.766;4.474;2023-05-07T12:43:34;18.20;99.90
13898;DHT22;7019;50.766;4.474;2023-05-07T12:46:03;18.10;99.90
13898;DHT22;7019;50.766;4.474;2023-05-07T12:48:30;18.00;99.90
13898;DHT22;7019;50.766;4.474;2023-05-07T12:50:59;18.10;99.90
13898;DHT22;7019;50.766;4.474;2023-05-07T12:53:27;18.20;99.90
13898;DHT22;7019;50.766;4.474;2023-05-07T12:55:57;18.30;99.90
13898;DHT22;7019;50.766;4.474;2023-05-07T12:58:26;18.20;99.90
13898;DHT22;7019;50.766;4.474;2023-05-07T13:00:54;18.20;99.90
13898;DHT22;7019;50.766;4.474;2023-05-07T13:03:26;18.30;99.90
13898;DHT22;7019;50.766;4.474;2023-05-07T13:05:55;18.30;99.90
13898;DHT22;7019;50.766;4.474;2023-05-07T13:08:26;18.20;99.90
13898;DHT22;7019;50.766;4.474;2023-05-07T13:10:54;18.20;99.90
13898;DHT22;7019;50.766;4.474;2023-05-07T13:13:22;18.20;99.90
13898;DHT22;7019;50.766;4.474;2023-05-07T13:15:49;18.20;99.90
13898;DHT22;7019;50.766;4.474;2023-05-07T13:18:16;18.20;99.90
13898;DHT22;7019;50.766;4.474;2023-05-07T13:20:44;18.20;99.90
13898;DHT22;7019;50.766;4.474;2023-05-07T13:23:11;18.10;99.90
13898;DHT22;7019;50.766;4.474;2023-05-07T13:25:38;18.20;99.90
13898;DHT22;7019;50.766;4.474;2023-05-07T13:28:05;18.20;99.90
13898;DHT22;7019;50.766;4.474;2023-05-07T13:30:33;18.30;99.90
13898;DHT22;7019;50.766;4.474;2023-05-07T13:33:01;18.40;99.90
13898;DHT22;7019;50.766;4.474;2023-05-07T13:35:28;18.50;99.90
13898;DHT22;7019;50.766;4.474;2023-05-07T13:37:55;18.50;99.90
13898;DHT22;7019;50.766;4.474;2023-05-07T13:40:22;18.60;99.90
13898;DHT22;7019;50.766;4.474;2023-05-07T13:42:50;18.60;99.90
13898;DHT22;7019;50.766;4.474;2023-05-07T13:45:17;18.60;99.90
13898;DHT22;7019;50.766;4.474;2023-05-07T13:47:46;18.60;99.90
13898;DHT22;7019;50.766;4.474;2023-05-07T13:50:15;18.50;99.90
13898;DHT22;7019;50.766;4.474;2023-05-07T13:52:43;18.50;99.90
13898;DHT22;7019;50.766;4.474;2023-05-07T13:55:16;18.60;99.90
13898;DHT22;7019;50.766;4.474;2023-05-07T13:57:43;18.50;99.90
13898;DHT22;7019;50.766;4.474;2023-05-07T14:00:11;18.50;99.90
13898;DHT22;7019;50.766;4.474;2023-05-07T14:02:38;18.40;99.90
13898;DHT22;7019;50.766;4.474;2023-05-07T14:05:07;18.30;99.90
13898;DHT22;7019;50.766;4.474;2023-05-07T14:07:35;18.30;99.90
13898;DHT22;7019;50.766;4.474;2023-05-07T14:10:03;18.30;99.90
13898;DHT22;7019;50.766;4.474;2023-05-07T14:12:31;18.40;99.90
13898;DHT22;7019;50.766;4.474;2023-05-07T14:14:59;18.40;99.90
13898;DHT22;7019;50.766;4.474;2023-05-07T14:17:26;18.40;99.90
13898;DHT22;7019;50.766;4.474;2023-05-07T14:19:53;18.30;99.90
13898;DHT22;7019;50.766;4.474;2023-05-07T14:22:22;18.30;99.90
13898;DHT22;7019;50.766;4.474;2023-05-07T14:24:50;18.30;99.90
13898;DHT22;7019;50.766;4.474;2023-05-07T14:27:17;18.20;99.90
13898;DHT22;7019;50.766;4.474;2023-05-07T14:29:44;18.20;99.90
13898;DHT22;7019;50.766;4.474;2023-05-07T14:32:16;18.10;99.90
13898;DHT22;7019;50.766;4.474;2023-05-07T14:34:43;18.10;99.90
13898;DHT22;7019;50.766;4.474;2023-05-07T14:37:10;18.10;99.90
13898;DHT22;7019;50.766;4.474;2023-05-07T14:39:39;18.10;99.90
13898;DHT22;7019;50.766;4.474;2023-05-07T14:42:06;18.10;99.90
13898;DHT22;7019;50.766;4.474;2023-05-07T14:44:34;18.10;99.90
13898;DHT22;7019;50.766;4.474;2023-05-07T14:47:01;18.10;99.90
13898;DHT22;7019;50.766;4.474;2023-05-07T14:49:28;18.00;99.90
13898;DHT22;7019;50.766;4.474;2023-05-07T14:51:57;17.90;99.90
13898;DHT22;7019;50.766;4.474;2023-05-07T14:54:25;18.00;99.90
13898;DHT22;7019;50.766;4.474;2023-05-07T14:56:54;18.00;99.90
13898;DHT22;7019;50.766;4.474;2023-05-07T14:59:21;18.00;99.90
13898;DHT22;7019;50.766;4.474;2023-05-07T15:01:50;18.10;99.90
13898;DHT22;7019;50.766;4.474;2023-05-07T15:04:17;18.10;99.90
13898;DHT22;7019;50.766;4.474;2023-05-07T15:06:45;17.90;99.90
13898;DHT22;7019;50.766;4.474;2023-05-07T15:09:12;17.90;99.90
13898;DHT22;7019;50.766;4.474;2023-05-07T15:11:39;17.90;99.90
13898;DHT22;7019;50.766;4.474;2023-05-07T15:14:08;18.00;99.90
13898;DHT22;7019;50.766;4.474;2023-05-07T15:16:35;18.10;99.90
13898;DHT22;7019;50.766;4.474;2023-05-07T15:19:02;18.10;99.90
13898;DHT22;7019;50.766;4.474;2023-05-07T15:21:29;18.10;99.90
13898;DHT22;7019;50.766;4.474;2023-05-07T15:24:00;18.10;99.90
13898;DHT22;7019;50.766;4.474;2023-05-07T15:26:27;18.10;99.90
13898;DHT22;7019;50.766;4.474;2023-05-07T15:28:54;18.00;99.90
13898;DHT22;7019;50.766;4.474;2023-05-07T15:31:24;18.10;99.90
13898;DHT22;7019;50.766;4.474;2023-05-07T15:33:51;18.00;99.90
13898;DHT22;7019;50.766;4.474;2023-05-07T15:36:19;18.10;99.90
13898;DHT22;7019;50.766;4.474;2023-05-07T15:38:46;18.10;99.90
13898;DHT22;7019;50.766;4.474;2023-05-07T15:41:13;18.10;99.90
13898;DHT22;7019;50.766;4.474;2023-05-07T15:43:45;18.20;99.90
13898;DHT22;7019;50.766;4.474;2023-05-07T15:46:17;18.20;99.90
13898;DHT22;7019;50.766;4.474;2023-05-07T15:48:45;18.30;99.90
13898;DHT22;7019;50.766;4.474;2023-05-07T15:51:12;18.30;99.90
13898;DHT22;7019;50.766;4.474;2023-05-07T15:53:40;18.30;99.90